Eden Mills, Vermont
Current Conditions -  °F | °C
As of 11:54 AM on Wednesday 22 Oct 2014 (Local Time) from KMVL Reporting Station
Light Rain Light Rain  
Wind Chill:   Ceiling: 800
Heat Index:   Visibility: 10mi
Dew Point:   Wind: 8mph
Humidity: 86%   Direction: 340°NNW
Pressure: 30.21"   Gusts: NA
Location:  44.71°N, 72.55°W
Report Text: KMVL 221554Z AUTO 34007KT 10SM -RA BKN008 OVC013 09/07 A3021 RMK AO2 RAB08E22B47 CIG 007V011 SLP234 P0000 T00890067
Loading
Personal Weather Stations






























Interactive Weather Map
Tropical Storm Tracking
New forecast layout! Learn more

10-Day Weather Forecast

Advertisements
Track Severe Weather on mobile